NVJ weather

Navojoa Airport
Navojoa, Sonora, Mexico

Public forecast

Using degrees Celsius for public forecast. Weather courtesy of forecast.io.

Closest aviation weather report (METAR) to Navojoa Airport

Report is more than 2 hours old.

Closest report is Ciudad Obregón International Airport, 32.8 nm (60.7 km) NW. Retrieved 2020/06/07 00:41 UTC (5 hours ago):

MMCN 070041Z 24010KT 10SM SKC 34/03 A2969 RMK HZY

Closest aviation forecast (TAF) to Navojoa Airport

Forecast is more than 6 hours old.

Closest forecast is Ciudad Obregón International Airport, 32.8 nm (60.7 km) NW. Retrieved 2020/06/06 18:00 UTC (11 hours ago):

TAF MMCN 061657Z 0618/0718 26008KT P6SM SKC FM070600 16006KT P6SM SKC